sensor_id;sensor_type;location;lat;lon;timestamp;temperature;humidity
8313;DHT22;4194;43.408;24.626;2023-11-21T00:01:02;5.40;99.90
8313;DHT22;4194;43.408;24.626;2023-11-21T00:03:30;5.70;99.90
8313;DHT22;4194;43.408;24.626;2023-11-21T00:05:56;5.50;99.90
8313;DHT22;4194;43.408;24.626;2023-11-21T00:08:21;5.50;99.90
8313;DHT22;4194;43.408;24.626;2023-11-21T00:10:47;5.30;99.90
8313;DHT22;4194;43.408;24.626;2023-11-21T00:13:13;5.50;99.90
8313;DHT22;4194;43.408;24.626;2023-11-21T00:15:39;5.50;99.90
8313;DHT22;4194;43.408;24.626;2023-11-21T00:18:06;5.40;99.90
8313;DHT22;4194;43.408;24.626;2023-11-21T00:20:31;5.40;99.90
8313;DHT22;4194;43.408;24.626;2023-11-21T00:22:57;5.40;99.90
8313;DHT22;4194;43.408;24.626;2023-11-21T00:25:23;5.40;99.90
8313;DHT22;4194;43.408;24.626;2023-11-21T00:27:50;5.40;99.90
8313;DHT22;4194;43.408;24.626;2023-11-21T00:30:16;5.30;99.90
8313;DHT22;4194;43.408;24.626;2023-11-21T00:32:42;5.20;99.90
8313;DHT22;4194;43.408;24.626;2023-11-21T00:35:07;5.30;99.90
8313;DHT22;4194;43.408;24.626;2023-11-21T00:37:33;5.10;99.90
8313;DHT22;4194;43.408;24.626;2023-11-21T00:39:59;5.20;99.90
8313;DHT22;4194;43.408;24.626;2023-11-21T00:42:25;5.20;99.90
8313;DHT22;4194;43.408;24.626;2023-11-21T00:44:50;5.30;99.90
8313;DHT22;4194;43.408;24.626;2023-11-21T00:47:16;5.30;99.90
8313;DHT22;4194;43.408;24.626;2023-11-21T00:49:42;5.20;99.90
8313;DHT22;4194;43.408;24.626;2023-11-21T00:52:09;5.20;99.90
8313;DHT22;4194;43.408;24.626;2023-11-21T00:54:35;5.10;99.90
8313;DHT22;4194;43.408;24.626;2023-11-21T00:57:01;5.20;99.90
8313;DHT22;4194;43.408;24.626;2023-11-21T00:59:27;5.10;99.90
8313;DHT22;4194;43.408;24.626;2023-11-21T01:01:52;5.10;99.90
8313;DHT22;4194;43.408;24.626;2023-11-21T01:04:19;5.20;99.90
8313;DHT22;4194;43.408;24.626;2023-11-21T01:06:45;5.10;99.90
8313;DHT22;4194;43.408;24.626;2023-11-21T01:09:11;5.10;99.90
8313;DHT22;4194;43.408;24.626;2023-11-21T01:11:37;5.00;99.90
8313;DHT22;4194;43.408;24.626;2023-11-21T01:14:04;5.10;99.90
8313;DHT22;4194;43.408;24.626;2023-11-21T01:16:30;5.20;99.90
8313;DHT22;4194;43.408;24.626;2023-11-21T01:18:58;5.10;99.90
8313;DHT22;4194;43.408;24.626;2023-11-21T01:21:25;5.30;99.90
8313;DHT22;4194;43.408;24.626;2023-11-21T01:23:50;5.10;99.90
8313;DHT22;4194;43.408;24.626;2023-11-21T01:26:16;5.00;99.90
8313;DHT22;4194;43.408;24.626;2023-11-21T01:28:42;5.00;99.90
8313;DHT22;4194;43.408;24.626;2023-11-21T01:31:07;4.90;99.90
8313;DHT22;4194;43.408;24.626;2023-11-21T01:33:33;5.20;99.90
8313;DHT22;4194;43.408;24.626;2023-11-21T01:35:59;5.00;99.90
8313;DHT22;4194;43.408;24.626;2023-11-21T01:38:25;5.10;99.90
8313;DHT22;4194;43.408;24.626;2023-11-21T01:40:51;5.00;99.90
8313;DHT22;4194;43.408;24.626;2023-11-21T01:43:17;5.00;99.90
8313;DHT22;4194;43.408;24.626;2023-11-21T01:45:43;5.00;99.90
8313;DHT22;4194;43.408;24.626;2023-11-21T01:48:10;5.10;99.90
8313;DHT22;4194;43.408;24.626;2023-11-21T01:50:36;5.20;99.90
8313;DHT22;4194;43.408;24.626;2023-11-21T01:53:02;5.00;99.90
8313;DHT22;4194;43.408;24.626;2023-11-21T01:55:29;5.00;99.90
8313;DHT22;4194;43.408;24.626;2023-11-21T01:57:58;5.00;99.90
8313;DHT22;4194;43.408;24.626;2023-11-21T02:00:24;5.00;99.90
8313;DHT22;4194;43.408;24.626;2023-11-21T02:02:50;5.00;99.90
8313;DHT22;4194;43.408;24.626;2023-11-21T02:05:17;4.90;99.90
8313;DHT22;4194;43.408;24.626;2023-11-21T02:07:44;5.20;99.90
8313;DHT22;4194;43.408;24.626;2023-11-21T02:10:10;5.00;99.90
8313;DHT22;4194;43.408;24.626;2023-11-21T02:12:43;5.00;99.90
8313;DHT22;4194;43.408;24.626;2023-11-21T02:15:13;5.20;99.90
8313;DHT22;4194;43.408;24.626;2023-11-21T02:17:52;5.30;99.90
8313;DHT22;4194;43.408;24.626;2023-11-21T02:20:23;5.00;99.90
8313;DHT22;4194;43.408;24.626;2023-11-21T02:22:54;5.30;99.90
8313;DHT22;4194;43.408;24.626;2023-11-21T02:25:30;5.00;99.90
8313;DHT22;4194;43.408;24.626;2023-11-21T02:27:58;5.10;99.90
8313;DHT22;4194;43.408;24.626;2023-11-21T02:30:24;5.00;99.90
8313;DHT22;4194;43.408;24.626;2023-11-21T02:32:57;5.10;99.90
8313;DHT22;4194;43.408;24.626;2023-11-21T02:35:24;5.00;99.90
8313;DHT22;4194;43.408;24.626;2023-11-21T02:37:52;5.00;99.90
8313;DHT22;4194;43.408;24.626;2023-11-21T02:40:18;5.00;99.90
8313;DHT22;4194;43.408;24.626;2023-11-21T02:42:48;5.10;99.90
8313;DHT22;4194;43.408;24.626;2023-11-21T02:45:17;5.00;99.90
8313;DHT22;4194;43.408;24.626;2023-11-21T02:47:44;5.10;99.90
8313;DHT22;4194;43.408;24.626;2023-11-21T02:50:10;5.20;99.90
8313;DHT22;4194;43.408;24.626;2023-11-21T02:52:37;5.10;99.90
8313;DHT22;4194;43.408;24.626;2023-11-21T02:55:03;5.00;99.90
8313;DHT22;4194;43.408;24.626;2023-11-21T02:57:29;5.30;99.90
8313;DHT22;4194;43.408;24.626;2023-11-21T02:59:55;5.10;99.90
8313;DHT22;4194;43.408;24.626;2023-11-21T03:02:21;4.50;99.90
8313;DHT22;4194;43.408;24.626;2023-11-21T03:04:47;4.90;99.90
8313;DHT22;4194;43.408;24.626;2023-11-21T03:07:15;5.20;99.90
8313;DHT22;4194;43.408;24.626;2023-11-21T03:09:40;5.00;99.90
8313;DHT22;4194;43.408;24.626;2023-11-21T03:12:06;4.80;99.90
8313;DHT22;4194;43.408;24.626;2023-11-21T03:14:32;4.70;99.90
8313;DHT22;4194;43.408;24.626;2023-11-21T03:16:57;4.70;99.90
8313;DHT22;4194;43.408;24.626;2023-11-21T03:19:23;4.70;99.90
8313;DHT22;4194;43.408;24.626;2023-11-21T03:21:49;4.70;99.90
8313;DHT22;4194;43.408;24.626;2023-11-21T03:24:14;4.60;99.90
8313;DHT22;4194;43.408;24.626;2023-11-21T03:26:45;4.10;99.90
8313;DHT22;4194;43.408;24.626;2023-11-21T03:29:10;4.50;99.90
8313;DHT22;4194;43.408;24.626;2023-11-21T03:31:36;4.50;99.90
8313;DHT22;4194;43.408;24.626;2023-11-21T03:34:02;4.00;99.90
8313;DHT22;4194;43.408;24.626;2023-11-21T03:36:27;4.50;99.90
8313;DHT22;4194;43.408;24.626;2023-11-21T03:38:53;4.40;99.90
8313;DHT22;4194;43.408;24.626;2023-11-21T03:41:19;4.60;99.90
8313;DHT22;4194;43.408;24.626;2023-11-21T03:43:44;5.00;99.90
8313;DHT22;4194;43.408;24.626;2023-11-21T03:46:10;4.70;99.90
8313;DHT22;4194;43.408;24.626;2023-11-21T03:48:36;4.40;99.90
8313;DHT22;4194;43.408;24.626;2023-11-21T03:51:01;4.50;99.90
8313;DHT22;4194;43.408;24.626;2023-11-21T03:53:27;4.40;99.90
8313;DHT22;4194;43.408;24.626;2023-11-21T03:55:53;4.50;99.90
8313;DHT22;4194;43.408;24.626;2023-11-21T03:58:19;4.10;99.90
8313;DHT22;4194;43.408;24.626;2023-11-21T04:00:45;4.70;99.90
8313;DHT22;4194;43.408;24.626;2023-11-21T04:03:11;4.30;99.90
8313;DHT22;4194;43.408;24.626;2023-11-21T04:05:38;4.40;99.90
8313;DHT22;4194;43.408;24.626;2023-11-21T04:08:04;4.70;99.90
8313;DHT22;4194;43.408;24.626;2023-11-21T04:10:29;4.40;99.90
8313;DHT22;4194;43.408;24.626;2023-11-21T04:12:55;4.40;99.90
8313;DHT22;4194;43.408;24.626;2023-11-21T04:15:21;4.10;99.90
8313;DHT22;4194;43.408;24.626;2023-11-21T04:17:46;4.40;99.90
8313;DHT22;4194;43.408;24.626;2023-11-21T04:20:12;4.80;99.90
8313;DHT22;4194;43.408;24.626;2023-11-21T04:22:42;4.40;99.90
8313;DHT22;4194;43.408;24.626;2023-11-21T04:25:14;4.40;99.90
8313;DHT22;4194;43.408;24.626;2023-11-21T04:27:40;4.70;99.90
8313;DHT22;4194;43.408;24.626;2023-11-21T04:30:12;4.80;99.90
8313;DHT22;4194;43.408;24.626;2023-11-21T04:32:39;4.80;99.90
8313;DHT22;4194;43.408;24.626;2023-11-21T04:35:05;4.30;99.90
8313;DHT22;4194;43.408;24.626;2023-11-21T04:37:31;4.20;99.90
8313;DHT22;4194;43.408;24.626;2023-11-21T04:39:57;4.20;99.90
8313;DHT22;4194;43.408;24.626;2023-11-21T04:42:23;4.20;99.90
8313;DHT22;4194;43.408;24.626;2023-11-21T04:44:49;4.20;99.90
8313;DHT22;4194;43.408;24.626;2023-11-21T04:47:15;3.80;99.90
8313;DHT22;4194;43.408;24.626;2023-11-21T04:49:43;4.40;99.90
8313;DHT22;4194;43.408;24.626;2023-11-21T04:52:12;4.50;99.90
8313;DHT22;4194;43.408;24.626;2023-11-21T04:54:38;4.60;99.90
8313;DHT22;4194;43.408;24.626;2023-11-21T04:57:08;4.50;99.90
8313;DHT22;4194;43.408;24.626;2023-11-21T04:59:34;4.50;99.90
8313;DHT22;4194;43.408;24.626;2023-11-21T05:02:00;4.50;99.90
8313;DHT22;4194;43.408;24.626;2023-11-21T05:04:26;3.90;99.90
8313;DHT22;4194;43.408;24.626;2023-11-21T05:06:52;4.60;99.90
8313;DHT22;4194;43.408;24.626;2023-11-21T05:09:18;4.90;99.90
8313;DHT22;4194;43.408;24.626;2023-11-21T05:11:43;5.00;99.90
8313;DHT22;4194;43.408;24.626;2023-11-21T05:14:09;4.70;99.90
8313;DHT22;4194;43.408;24.626;2023-11-21T05:16:35;5.10;99.90
8313;DHT22;4194;43.408;24.626;2023-11-21T05:19:02;4.30;99.90
8313;DHT22;4194;43.408;24.626;2023-11-21T05:21:28;4.70;99.90
8313;DHT22;4194;43.408;24.626;2023-11-21T05:23:55;5.10;99.90
8313;DHT22;4194;43.408;24.626;2023-11-21T05:26:20;4.80;99.90
8313;DHT22;4194;43.408;24.626;2023-11-21T05:28:47;4.80;99.90
8313;DHT22;4194;43.408;24.626;2023-11-21T05:31:13;4.80;99.90
8313;DHT22;4194;43.408;24.626;2023-11-21T05:33:39;5.00;99.90
8313;DHT22;4194;43.408;24.626;2023-11-21T05:36:05;5.10;99.90
8313;DHT22;4194;43.408;24.626;2023-11-21T05:38:33;4.80;99.90
8313;DHT22;4194;43.408;24.626;2023-11-21T05:41:01;5.00;99.90
8313;DHT22;4194;43.408;24.626;2023-11-21T05:43:26;5.10;99.90
8313;DHT22;4194;43.408;24.626;2023-11-21T05:45:53;5.10;99.90
8313;DHT22;4194;43.408;24.626;2023-11-21T05:48:19;5.20;99.90
8313;DHT22;4194;43.408;24.626;2023-11-21T05:50:46;5.10;99.90
8313;DHT22;4194;43.408;24.626;2023-11-21T05:53:13;5.30;99.90
8313;DHT22;4194;43.408;24.626;2023-11-21T05:55:41;5.20;99.90
8313;DHT22;4194;43.408;24.626;2023-11-21T05:58:08;5.30;99.90
8313;DHT22;4194;43.408;24.626;2023-11-21T06:00:34;5.40;99.90
8313;DHT22;4194;43.408;24.626;2023-11-21T06:03:00;5.40;99.90
8313;DHT22;4194;43.408;24.626;2023-11-21T06:05:26;5.40;99.90
8313;DHT22;4194;43.408;24.626;2023-11-21T06:07:55;5.60;99.90
8313;DHT22;4194;43.408;24.626;2023-11-21T06:10:26;5.70;99.90
8313;DHT22;4194;43.408;24.626;2023-11-21T06:12:53;5.80;99.90
8313;DHT22;4194;43.408;24.626;2023-11-21T06:15:19;5.70;99.90
8313;DHT22;4194;43.408;24.626;2023-11-21T06:17:47;5.90;99.90
8313;DHT22;4194;43.408;24.626;2023-11-21T06:20:18;6.10;99.90
8313;DHT22;4194;43.408;24.626;2023-11-21T06:22:47;6.40;99.90
8313;DHT22;4194;43.408;24.626;2023-11-21T06:25:13;5.70;99.90
8313;DHT22;4194;43.408;24.626;2023-11-21T06:27:41;6.50;99.90
8313;DHT22;4194;43.408;24.626;2023-11-21T06:30:08;6.30;99.90
8313;DHT22;4194;43.408;24.626;2023-11-21T06:32:35;6.50;99.90
8313;DHT22;4194;43.408;24.626;2023-11-21T06:35:02;6.40;99.90
8313;DHT22;4194;43.408;24.626;2023-11-21T06:37:30;6.70;99.90
8313;DHT22;4194;43.408;24.626;2023-11-21T06:39:56;6.60;99.90
8313;DHT22;4194;43.408;24.626;2023-11-21T06:42:23;6.70;99.90
8313;DHT22;4194;43.408;24.626;2023-11-21T06:44:49;6.90;99.90
8313;DHT22;4194;43.408;24.626;2023-11-21T06:47:17;6.90;99.90
8313;DHT22;4194;43.408;24.626;2023-11-21T06:49:43;7.10;99.90
8313;DHT22;4194;43.408;24.626;2023-11-21T06:52:09;7.20;99.90
8313;DHT22;4194;43.408;24.626;2023-11-21T06:54:35;7.30;99.90
8313;DHT22;4194;43.408;24.626;2023-11-21T06:57:02;7.20;99.90
8313;DHT22;4194;43.408;24.626;2023-11-21T06:59:31;7.50;99.90
8313;DHT22;4194;43.408;24.626;2023-11-21T07:01:57;7.50;99.90
8313;DHT22;4194;43.408;24.626;2023-11-21T07:04:23;7.70;99.90
8313;DHT22;4194;43.408;24.626;2023-11-21T07:06:54;7.90;99.90
8313;DHT22;4194;43.408;24.626;2023-11-21T07:09:20;8.00;99.90
8313;DHT22;4194;43.408;24.626;2023-11-21T07:11:49;7.50;99.90
8313;DHT22;4194;43.408;24.626;2023-11-21T07:14:15;8.00;99.90
8313;DHT22;4194;43.408;24.626;2023-11-21T07:16:42;8.40;99.90
8313;DHT22;4194;43.408;24.626;2023-11-21T07:19:08;8.40;99.90
8313;DHT22;4194;43.408;24.626;2023-11-21T07:21:34;8.30;99.90
8313;DHT22;4194;43.408;24.626;2023-11-21T07:24:01;8.60;99.90
8313;DHT22;4194;43.408;24.626;2023-11-21T07:26:27;8.80;99.90
8313;DHT22;4194;43.408;24.626;2023-11-21T07:28:54;9.20;99.90
8313;DHT22;4194;43.408;24.626;2023-11-21T07:31:20;9.10;99.90
8313;DHT22;4194;43.408;24.626;2023-11-21T07:33:47;9.20;99.90
8313;DHT22;4194;43.408;24.626;2023-11-21T07:36:14;9.40;99.90
8313;DHT22;4194;43.408;24.626;2023-11-21T07:38:39;9.70;99.90
8313;DHT22;4194;43.408;24.626;2023-11-21T07:41:05;9.80;99.90
8313;DHT22;4194;43.408;24.626;2023-11-21T07:43:36;10.00;99.90
8313;DHT22;4194;43.408;24.626;2023-11-21T07:46:03;10.30;99.90
8313;DHT22;4194;43.408;24.626;2023-11-21T07:48:29;10.40;99.90
8313;DHT22;4194;43.408;24.626;2023-11-21T07:50:56;10.70;99.90
8313;DHT22;4194;43.408;24.626;2023-11-21T07:53:21;10.90;99.90
8313;DHT22;4194;43.408;24.626;2023-11-21T07:55:47;11.00;99.90
8313;DHT22;4194;43.408;24.626;2023-11-21T07:58:13;11.40;99.90
8313;DHT22;4194;43.408;24.626;2023-11-21T08:00:39;11.30;99.90
8313;DHT22;4194;43.408;24.626;2023-11-21T08:03:05;11.30;99.80
8313;DHT22;4194;43.408;24.626;2023-11-21T08:05:33;11.50;98.30
8313;DHT22;4194;43.408;24.626;2023-11-21T08:08:00;11.60;97.30
8313;DHT22;4194;43.408;24.626;2023-11-21T08:10:25;11.80;97.10
8313;DHT22;4194;43.408;24.626;2023-11-21T08:12:51;12.20;96.30
8313;DHT22;4194;43.408;24.626;2023-11-21T08:15:19;11.90;96.00
8313;DHT22;4194;43.408;24.626;2023-11-21T08:17:46;12.20;95.60
8313;DHT22;4194;43.408;24.626;2023-11-21T08:20:12;12.60;95.40
8313;DHT22;4194;43.408;24.626;2023-11-21T08:22:42;12.50;94.80
8313;DHT22;4194;43.408;24.626;2023-11-21T08:25:08;12.40;95.20
8313;DHT22;4194;43.408;24.626;2023-11-21T08:27:34;12.40;95.00
8313;DHT22;4194;43.408;24.626;2023-11-21T08:30:00;12.20;94.50
8313;DHT22;4194;43.408;24.626;2023-11-21T08:32:26;12.60;94.60
8313;DHT22;4194;43.408;24.626;2023-11-21T08:34:52;12.50;94.20
8313;DHT22;4194;43.408;24.626;2023-11-21T08:37:18;12.70;94.00
8313;DHT22;4194;43.408;24.626;2023-11-21T08:39:44;12.70;93.80
8313;DHT22;4194;43.408;24.626;2023-11-21T08:42:10;13.20;93.50
8313;DHT22;4194;43.408;24.626;2023-11-21T08:44:36;13.10;93.30
8313;DHT22;4194;43.408;24.626;2023-11-21T08:47:01;13.20;92.90
8313;DHT22;4194;43.408;24.626;2023-11-21T08:49:27;13.30;92.90
8313;DHT22;4194;43.408;24.626;2023-11-21T08:51:54;13.20;92.50
8313;DHT22;4194;43.408;24.626;2023-11-21T08:54:25;13.80;92.40
8313;DHT22;4194;43.408;24.626;2023-11-21T08:56:52;14.00;91.70
8313;DHT22;4194;43.408;24.626;2023-11-21T08:59:18;14.30;90.90
8313;DHT22;4194;43.408;24.626;2023-11-21T09:01:45;14.20;90.30
8313;DHT22;4194;43.408;24.626;2023-11-21T09:04:12;14.80;90.10
8313;DHT22;4194;43.408;24.626;2023-11-21T09:06:39;15.00;88.50
8313;DHT22;4194;43.408;24.626;2023-11-21T09:09:05;15.20;88.00
8313;DHT22;4194;43.408;24.626;2023-11-21T09:11:32;15.50;87.10
8313;DHT22;4194;43.408;24.626;2023-11-21T09:14:00;15.30;86.00
8313;DHT22;4194;43.408;24.626;2023-11-21T09:16:26;15.30;85.60
8313;DHT22;4194;43.408;24.626;2023-11-21T09:18:51;15.70;85.80
8313;DHT22;4194;43.408;24.626;2023-11-21T09:21:17;15.30;83.90
8313;DHT22;4194;43.408;24.626;2023-11-21T09:23:46;15.20;84.20
8313;DHT22;4194;43.408;24.626;2023-11-21T09:26:12;15.50;84.50
8313;DHT22;4194;43.408;24.626;2023-11-21T09:28:38;15.60;83.30
8313;DHT22;4194;43.408;24.626;2023-11-21T09:31:05;16.10;83.00
8313;DHT22;4194;43.408;24.626;2023-11-21T09:33:34;16.20;82.20
8313;DHT22;4194;43.408;24.626;2023-11-21T09:36:00;16.60;81.10
8313;DHT22;4194;43.408;24.626;2023-11-21T09:38:26;16.70;81.90
8313;DHT22;4194;43.408;24.626;2023-11-21T09:40:54;16.50;78.70
8313;DHT22;4194;43.408;24.626;2023-11-21T09:43:20;16.80;77.80
8313;DHT22;4194;43.408;24.626;2023-11-21T09:45:50;17.10;79.10
8313;DHT22;4194;43.408;24.626;2023-11-21T09:48:20;17.40;78.20
8313;DHT22;4194;43.408;24.626;2023-11-21T09:50:47;18.00;76.40
8313;DHT22;4194;43.408;24.626;2023-11-21T09:55:46;18.10;74.70
8313;DHT22;4194;43.408;24.626;2023-11-21T09:58:13;17.90;73.80
8313;DHT22;4194;43.408;24.626;2023-11-21T10:00:47;18.20;74.20
8313;DHT22;4194;43.408;24.626;2023-11-21T10:03:13;18.00;74.30
8313;DHT22;4194;43.408;24.626;2023-11-21T10:05:41;18.40;73.00
8313;DHT22;4194;43.408;24.626;2023-11-21T10:08:11;18.80;71.30
8313;DHT22;4194;43.408;24.626;2023-11-21T10:10:37;18.90;70.90
8313;DHT22;4194;43.408;24.626;2023-11-21T10:13:05;19.50;68.20
8313;DHT22;4194;43.408;24.626;2023-11-21T10:15:34;20.30;63.40
8313;DHT22;4194;43.408;24.626;2023-11-21T10:18:02;20.20;61.80
8313;DHT22;4194;43.408;24.626;2023-11-21T10:20:29;21.00;60.30
8313;DHT22;4194;43.408;24.626;2023-11-21T10:22:55;21.40;58.40
8313;DHT22;4194;43.408;24.626;2023-11-21T10:25:24;21.80;57.20
8313;DHT22;4194;43.408;24.626;2023-11-21T10:27:58;22.00;55.50
8313;DHT22;4194;43.408;24.626;2023-11-21T10:30:36;22.10;55.80
8313;DHT22;4194;43.408;24.626;2023-11-21T10:33:04;21.60;54.40
8313;DHT22;4194;43.408;24.626;2023-11-21T10:38:07;21.70;55.40
8313;DHT22;4194;43.408;24.626;2023-11-21T10:40:43;22.10;54.00
8313;DHT22;4194;43.408;24.626;2023-11-21T10:43:10;22.10;54.40
8313;DHT22;4194;43.408;24.626;2023-11-21T10:45:40;22.30;52.90
8313;DHT22;4194;43.408;24.626;2023-11-21T10:48:06;22.70;53.40
8313;DHT22;4194;43.408;24.626;2023-11-21T10:50:36;22.80;51.70
8313;DHT22;4194;43.408;24.626;2023-11-21T10:53:06;23.20;52.30
8313;DHT22;4194;43.408;24.626;2023-11-21T10:55:32;23.50;52.20
8313;DHT22;4194;43.408;24.626;2023-11-21T10:58:00;23.50;51.90
8313;DHT22;4194;43.408;24.626;2023-11-21T11:00:28;23.40;51.20
8313;DHT22;4194;43.408;24.626;2023-11-21T11:02:54;23.50;50.90
8313;DHT22;4194;43.408;24.626;2023-11-21T11:05:22;23.50;51.90
8313;DHT22;4194;43.408;24.626;2023-11-21T11:07:52;23.60;51.00
8313;DHT22;4194;43.408;24.626;2023-11-21T11:10:25;23.10;50.50
8313;DHT22;4194;43.408;24.626;2023-11-21T11:12:53;22.90;51.20
8313;DHT22;4194;43.408;24.626;2023-11-21T11:15:20;23.20;51.00
8313;DHT22;4194;43.408;24.626;2023-11-21T11:17:46;23.00;51.10
8313;DHT22;4194;43.408;24.626;2023-11-21T11:20:14;22.90;51.80
8313;DHT22;4194;43.408;24.626;2023-11-21T11:28:21;22.90;52.60
8313;DHT22;4194;43.408;24.626;2023-11-21T11:30:54;23.00;52.80
8313;DHT22;4194;43.408;24.626;2023-11-21T11:33:34;23.50;51.70
8313;DHT22;4194;43.408;24.626;2023-11-21T11:36:06;24.20;51.30
8313;DHT22;4194;43.408;24.626;2023-11-21T11:38:34;25.00;50.10
8313;DHT22;4194;43.408;24.626;2023-11-21T11:41:05;24.20;49.90
8313;DHT22;4194;43.408;24.626;2023-11-21T11:43:31;24.30;50.20
8313;DHT22;4194;43.408;24.626;2023-11-21T11:46:03;23.90;51.00
8313;DHT22;4194;43.408;24.626;2023-11-21T11:48:29;23.70;51.70
8313;DHT22;4194;43.408;24.626;2023-11-21T11:51:04;23.00;51.40
8313;DHT22;4194;43.408;24.626;2023-11-21T11:53:36;22.30;53.40
8313;DHT22;4194;43.408;24.626;2023-11-21T11:56:29;22.00;53.70
8313;DHT22;4194;43.408;24.626;2023-11-21T11:59:03;21.60;54.40
8313;DHT22;4194;43.408;24.626;2023-11-21T12:01:33;21.30;55.60
8313;DHT22;4194;43.408;24.626;2023-11-21T12:06:42;19.80;57.60
8313;DHT22;4194;43.408;24.626;2023-11-21T12:09:19;19.40;58.30
8313;DHT22;4194;43.408;24.626;2023-11-21T12:11:47;19.10;59.30
8313;DHT22;4194;43.408;24.626;2023-11-21T12:14:17;18.90;59.90
8313;DHT22;4194;43.408;24.626;2023-11-21T12:16:43;18.90;60.40
8313;DHT22;4194;43.408;24.626;2023-11-21T12:19:12;18.20;60.10
8313;DHT22;4194;43.408;24.626;2023-11-21T12:21:39;18.20;60.80
8313;DHT22;4194;43.408;24.626;2023-11-21T12:24:07;18.30;61.40
8313;DHT22;4194;43.408;24.626;2023-11-21T12:26:39;18.20;61.40
8313;DHT22;4194;43.408;24.626;2023-11-21T12:29:05;18.00;62.00
8313;DHT22;4194;43.408;24.626;2023-11-21T12:31:33;17.70;63.30
8313;DHT22;4194;43.408;24.626;2023-11-21T12:34:00;17.90;62.30
8313;DHT22;4194;43.408;24.626;2023-11-21T12:36:26;18.10;63.60
8313;DHT22;4194;43.408;24.626;2023-11-21T12:38:52;17.70;62.30
8313;DHT22;4194;43.408;24.626;2023-11-21T12:41:17;17.40;63.30
8313;DHT22;4194;43.408;24.626;2023-11-21T12:43:43;17.00;63.80
8313;DHT22;4194;43.408;24.626;2023-11-21T12:46:13;17.10;63.60
8313;DHT22;4194;43.408;24.626;2023-11-21T12:48:42;17.40;63.90
8313;DHT22;4194;43.408;24.626;2023-11-21T12:51:10;17.60;64.10
8313;DHT22;4194;43.408;24.626;2023-11-21T12:53:37;17.50;64.20
8313;DHT22;4194;43.408;24.626;2023-11-21T12:56:10;17.60;63.90
8313;DHT22;4194;43.408;24.626;2023-11-21T12:58:37;17.50;64.70
8313;DHT22;4194;43.408;24.626;2023-11-21T13:01:05;17.60;64.60
8313;DHT22;4194;43.408;24.626;2023-11-21T13:03:37;16.50;63.80
8313;DHT22;4194;43.408;24.626;2023-11-21T13:06:04;17.40;65.10
8313;DHT22;4194;43.408;24.626;2023-11-21T13:08:30;17.20;65.30
8313;DHT22;4194;43.408;24.626;2023-11-21T13:10:58;17.40;65.30
8313;DHT22;4194;43.408;24.626;2023-11-21T13:13:27;17.40;65.30
8313;DHT22;4194;43.408;24.626;2023-11-21T13:15:55;17.40;64.90
8313;DHT22;4194;43.408;24.626;2023-11-21T13:18:27;17.30;64.30
8313;DHT22;4194;43.408;24.626;2023-11-21T13:20:57;17.20;64.80
8313;DHT22;4194;43.408;24.626;2023-11-21T13:23:23;17.20;65.30
8313;DHT22;4194;43.408;24.626;2023-11-21T13:25:53;16.60;64.60
8313;DHT22;4194;43.408;24.626;2023-11-21T13:28:19;16.80;65.40
8313;DHT22;4194;43.408;24.626;2023-11-21T13:30:47;16.70;65.70
8313;DHT22;4194;43.408;24.626;2023-11-21T13:33:14;16.60;67.40
8313;DHT22;4194;43.408;24.626;2023-11-21T13:35:44;16.50;67.20
8313;DHT22;4194;43.408;24.626;2023-11-21T13:38:15;16.40;67.40
8313;DHT22;4194;43.408;24.626;2023-11-21T13:40:52;16.00;68.40
8313;DHT22;4194;43.408;24.626;2023-11-21T13:43:21;15.80;69.00
8313;DHT22;4194;43.408;24.626;2023-11-21T13:45:49;15.70;69.60
8313;DHT22;4194;43.408;24.626;2023-11-21T13:48:25;15.60;70.00
8313;DHT22;4194;43.408;24.626;2023-11-21T13:50:57;15.80;71.10
8313;DHT22;4194;43.408;24.626;2023-11-21T13:53:42;15.30;71.60
8313;DHT22;4194;43.408;24.626;2023-11-21T13:56:08;15.20;72.40
8313;DHT22;4194;43.408;24.626;2023-11-21T13:58:34;15.20;73.10
8313;DHT22;4194;43.408;24.626;2023-11-21T14:01:20;15.00;73.90
8313;DHT22;4194;43.408;24.626;2023-11-21T14:04:09;14.90;75.30
8313;DHT22;4194;43.408;24.626;2023-11-21T14:06:37;15.00;75.60
8313;DHT22;4194;43.408;24.626;2023-11-21T14:09:17;14.80;76.10
8313;DHT22;4194;43.408;24.626;2023-11-21T14:14:22;14.60;77.00
8313;DHT22;4194;43.408;24.626;2023-11-21T14:16:50;14.50;77.10
8313;DHT22;4194;43.408;24.626;2023-11-21T14:19:17;14.60;77.50
8313;DHT22;4194;43.408;24.626;2023-11-21T14:21:47;14.50;77.80
8313;DHT22;4194;43.408;24.626;2023-11-21T14:24:14;14.40;77.70
8313;DHT22;4194;43.408;24.626;2023-11-21T14:26:45;14.40;77.60
8313;DHT22;4194;43.408;24.626;2023-11-21T14:29:12;14.30;77.90
8313;DHT22;4194;43.408;24.626;2023-11-21T14:31:40;14.20;78.20
8313;DHT22;4194;43.408;24.626;2023-11-21T14:34:07;14.20;78.40
8313;DHT22;4194;43.408;24.626;2023-11-21T14:36:35;14.10;78.30
8313;DHT22;4194;43.408;24.626;2023-11-21T14:39:03;13.90;78.50
8313;DHT22;4194;43.408;24.626;2023-11-21T14:41:32;14.10;78.60
8313;DHT22;4194;43.408;24.626;2023-11-21T14:44:01;14.00;79.00
8313;DHT22;4194;43.408;24.626;2023-11-21T14:46:28;14.00;79.40
8313;DHT22;4194;43.408;24.626;2023-11-21T14:48:53;13.90;79.00
8313;DHT22;4194;43.408;24.626;2023-11-21T14:51:39;13.90;79.20
8313;DHT22;4194;43.408;24.626;2023-11-21T14:54:25;13.80;79.70
8313;DHT22;4194;43.408;24.626;2023-11-21T14:57:06;13.80;79.90
8313;DHT22;4194;43.408;24.626;2023-11-21T14:59:45;14.70;81.30
8313;DHT22;4194;43.408;24.626;2023-11-21T15:02:17;13.70;81.10
8313;DHT22;4194;43.408;24.626;2023-11-21T15:04:50;13.80;81.50
8313;DHT22;4194;43.408;24.626;2023-11-21T15:07:26;13.60;81.20
8313;DHT22;4194;43.408;24.626;2023-11-21T15:09:53;13.60;81.00
8313;DHT22;4194;43.408;24.626;2023-11-21T15:12:19;13.60;81.60
8313;DHT22;4194;43.408;24.626;2023-11-21T15:14:50;13.60;81.00
8313;DHT22;4194;43.408;24.626;2023-11-21T15:17:19;13.50;81.10
8313;DHT22;4194;43.408;24.626;2023-11-21T15:19:52;13.50;81.30
8313;DHT22;4194;43.408;24.626;2023-11-21T15:22:19;13.50;81.80
8313;DHT22;4194;43.408;24.626;2023-11-21T15:24:44;13.50;82.10
8313;DHT22;4194;43.408;24.626;2023-11-21T15:27:15;13.70;83.20
8313;DHT22;4194;43.408;24.626;2023-11-21T15:29:44;13.50;83.80
8313;DHT22;4194;43.408;24.626;2023-11-21T15:32:10;13.40;84.70
8313;DHT22;4194;43.408;24.626;2023-11-21T15:34:38;13.30;86.00
8313;DHT22;4194;43.408;24.626;2023-11-21T15:37:05;13.00;86.80
8313;DHT22;4194;43.408;24.626;2023-11-21T15:39:35;13.30;87.10
8313;DHT22;4194;43.408;24.626;2023-11-21T15:42:00;13.30;86.80
8313;DHT22;4194;43.408;24.626;2023-11-21T15:44:26;13.50;87.50
8313;DHT22;4194;43.408;24.626;2023-11-21T15:46:55;13.30;88.40
8313;DHT22;4194;43.408;24.626;2023-11-21T15:49:22;13.20;90.30
8313;DHT22;4194;43.408;24.626;2023-11-21T15:51:48;13.20;91.20
8313;DHT22;4194;43.408;24.626;2023-11-21T15:54:25;13.20;91.20
8313;DHT22;4194;43.408;24.626;2023-11-21T15:56:51;13.10;90.90
8313;DHT22;4194;43.408;24.626;2023-11-21T15:59:23;13.10;93.20
8313;DHT22;4194;43.408;24.626;2023-11-21T16:01:50;13.20;94.70
8313;DHT22;4194;43.408;24.626;2023-11-21T16:04:15;13.10;95.90
8313;DHT22;4194;43.408;24.626;2023-11-21T16:06:45;13.00;96.80
8313;DHT22;4194;43.408;24.626;2023-11-21T16:09:12;13.00;99.90
8313;DHT22;4194;43.408;24.626;2023-11-21T16:11:48;13.00;99.90
8313;DHT22;4194;43.408;24.626;2023-11-21T16:14:14;13.10;99.90